createdAt,value
2023-01-15T00:02:25.785Z,0.93
2023-01-15T00:05:11.569Z,0.89
2023-01-15T00:07:57.007Z,0.90
2023-01-15T00:10:42.326Z,0.89
2023-01-15T00:13:29.052Z,0.85
2023-01-15T00:16:20.522Z,0.90
2023-01-15T00:19:08.821Z,0.93
2023-01-15T00:21:54.319Z,0.94
2023-01-15T00:24:58.278Z,0.90
2023-01-15T00:27:50.080Z,0.93
2023-01-15T00:30:45.492Z,0.96
2023-01-15T00:33:31.250Z,0.97
2023-01-15T00:36:16.705Z,0.99
2023-01-15T00:39:02.060Z,1.03
2023-01-15T00:41:47.835Z,1.04
2023-01-15T00:44:34.155Z,1.05
2023-01-15T00:47:19.672Z,1.03
2023-01-15T00:50:10.518Z,1.03
2023-01-15T00:52:56.125Z,1.12
2023-01-15T00:55:41.549Z,1.24
2023-01-15T00:58:27.014Z,1.29
2023-01-15T01:01:12.377Z,1.26
2023-01-15T01:03:58.346Z,1.28
2023-01-15T01:06:43.749Z,1.24
2023-01-15T01:09:30.376Z,1.33
2023-01-15T01:12:15.948Z,1.45
2023-01-15T01:15:01.484Z,1.55
2023-01-15T01:17:47.186Z,1.69
2023-01-15T01:20:33.313Z,1.82
2023-01-15T01:23:19.774Z,1.89
2023-01-15T01:26:05.553Z,1.93
2023-01-15T01:28:53.113Z,1.93
2023-01-15T01:31:38.744Z,1.90
2023-01-15T01:34:24.389Z,1.89
2023-01-15T01:37:09.600Z,1.95
2023-01-15T01:39:55.573Z,1.98
2023-01-15T01:42:41.041Z,1.99
2023-01-15T01:45:33.566Z,1.99
2023-01-15T01:48:25.039Z,2.00
2023-01-15T01:51:11.035Z,2.02
2023-01-15T01:53:58.277Z,2.01
2023-01-15T01:56:44.308Z,2.01
2023-01-15T01:59:30.145Z,1.96
2023-01-15T02:02:18.512Z,1.90
2023-01-15T02:05:07.756Z,1.87
2023-01-15T02:07:53.406Z,1.88
2023-01-15T02:10:38.939Z,1.86
2023-01-15T02:13:32.844Z,1.80
2023-01-15T02:16:27.536Z,1.78
2023-01-15T02:19:30.470Z,1.74
2023-01-15T02:22:18.644Z,1.74
2023-01-15T02:25:31.755Z,1.70
2023-01-15T02:28:48.769Z,1.68
2023-01-15T02:31:38.891Z,1.63
2023-01-15T02:34:29.382Z,1.66
2023-01-15T02:37:22.693Z,1.70
2023-01-15T02:40:11.137Z,1.71
2023-01-15T02:42:58.895Z,1.76
2023-01-15T02:45:49.197Z,1.76
2023-01-15T02:48:38.801Z,1.83
2023-01-15T02:51:28.795Z,1.86
2023-01-15T02:54:16.677Z,1.93
2023-01-15T02:57:05.198Z,1.97
2023-01-15T02:59:54.703Z,1.99
2023-01-15T03:02:45.478Z,2.01
2023-01-15T03:05:40.446Z,2.05
2023-01-15T03:08:27.904Z,2.09
2023-01-15T03:11:16.021Z,2.13
2023-01-15T03:14:21.932Z,2.12
2023-01-15T03:17:39.701Z,2.13
2023-01-15T03:20:28.019Z,2.18
2023-01-15T03:23:17.021Z,2.18
2023-01-15T03:26:03.083Z,2.20
2023-01-15T03:28:49.832Z,2.28
2023-01-15T03:31:36.787Z,2.30
2023-01-15T03:34:24.456Z,2.31
2023-01-15T03:37:10.393Z,2.33
2023-01-15T03:39:58.398Z,2.33
2023-01-15T03:43:14.262Z,2.37
2023-01-15T03:46:06.299Z,2.37
2023-01-15T03:49:07.484Z,2.34
2023-01-15T03:52:16.684Z,2.45
2023-01-15T03:55:08.282Z,2.45
2023-01-15T03:58:17.708Z,2.52
2023-01-15T04:01:11.000Z,2.50
2023-01-15T04:03:59.791Z,2.49
2023-01-15T04:06:47.992Z,2.48
2023-01-15T04:09:39.183Z,2.48
2023-01-15T04:12:28.203Z,2.49
2023-01-15T04:15:15.619Z,2.54
2023-01-15T04:18:02.227Z,2.55
2023-01-15T04:20:49.855Z,2.59
2023-01-15T04:23:35.429Z,2.65
2023-01-15T04:26:20.855Z,2.68
2023-01-15T04:29:06.378Z,2.67
2023-01-15T04:31:57.416Z,2.64
2023-01-15T04:34:42.605Z,2.64
2023-01-15T04:37:28.093Z,2.66
2023-01-15T04:40:33.081Z,2.64
2023-01-15T04:43:37.370Z,2.62
2023-01-15T04:46:24.924Z,2.62
2023-01-15T04:49:13.540Z,2.60
2023-01-15T04:51:59.140Z,2.61
2023-01-15T04:54:44.398Z,2.60
2023-01-15T04:57:29.869Z,2.60
2023-01-15T05:00:16.236Z,2.62
2023-01-15T05:03:01.878Z,2.66
2023-01-15T05:05:47.121Z,2.65
2023-01-15T05:08:32.920Z,2.64
2023-01-15T05:11:18.534Z,2.67
2023-01-15T05:14:04.261Z,2.69
2023-01-15T05:16:49.627Z,2.68
2023-01-15T05:19:34.914Z,2.65
2023-01-15T05:22:20.302Z,2.65
2023-01-15T05:25:06.306Z,2.67
2023-01-15T05:27:51.556Z,2.67
2023-01-15T05:30:37.004Z,2.65
2023-01-15T05:33:22.262Z,2.63
2023-01-15T05:36:13.294Z,2.63
2023-01-15T05:39:02.076Z,2.62
2023-01-15T05:41:51.434Z,2.66
2023-01-15T05:44:37.160Z,2.68
2023-01-15T05:47:22.542Z,2.71
2023-01-15T05:50:08.701Z,2.71
2023-01-15T05:52:54.304Z,2.72
2023-01-15T05:55:39.767Z,2.74
2023-01-15T05:58:25.122Z,2.75
2023-01-15T06:01:11.353Z,2.75
2023-01-15T06:04:01.469Z,2.76
2023-01-15T06:06:48.509Z,2.76
2023-01-15T06:09:33.919Z,2.75
2023-01-15T06:12:19.283Z,2.76
2023-01-15T06:15:05.025Z,2.76
2023-01-15T06:17:51.180Z,2.80
2023-01-15T06:20:37.829Z,2.81
2023-01-15T06:23:23.181Z,2.83
2023-01-15T06:26:16.005Z,2.85
2023-01-15T06:29:01.676Z,2.85
2023-01-15T06:31:47.756Z,2.83
2023-01-15T06:34:33.157Z,2.81
2023-01-15T06:37:18.583Z,2.79
2023-01-15T06:40:03.880Z,2.73
2023-01-15T06:43:09.128Z,2.70
2023-01-15T06:46:13.776Z,2.66
2023-01-15T06:48:59.284Z,2.63
2023-01-15T06:51:44.544Z,2.60
2023-01-15T06:54:30.527Z,2.59
2023-01-15T06:57:16.394Z,2.56
2023-01-15T07:00:01.929Z,2.54
2023-01-15T07:02:47.153Z,2.52
2023-01-15T07:05:32.527Z,2.49
2023-01-15T07:08:17.993Z,2.49
2023-01-15T07:11:05.384Z,2.46
2023-01-15T07:13:50.928Z,2.43
2023-01-15T07:16:37.806Z,2.40
2023-01-15T07:19:23.295Z,2.37
2023-01-15T07:22:10.417Z,2.37
2023-01-15T07:24:56.848Z,2.36
2023-01-15T07:27:42.802Z,2.35
2023-01-15T07:30:28.349Z,2.37
2023-01-15T07:33:13.909Z,2.36
2023-01-15T07:36:03.288Z,2.35
2023-01-15T07:38:49.070Z,2.35
2023-01-15T07:41:53.296Z,2.36
2023-01-15T07:44:57.776Z,2.36
2023-01-15T07:48:01.810Z,2.38
2023-01-15T07:50:47.355Z,2.39
2023-01-15T07:53:32.819Z,2.41
2023-01-15T07:56:18.159Z,2.42
2023-01-15T07:59:03.845Z,2.42
2023-01-15T08:01:49.259Z,2.43
2023-01-15T08:04:35.404Z,2.42
2023-01-15T08:07:21.075Z,2.43
2023-01-15T08:10:07.096Z,2.42
2023-01-15T08:13:11.084Z,2.43
2023-01-15T08:15:56.689Z,2.43
2023-01-15T08:18:42.382Z,2.43
2023-01-15T08:21:27.738Z,2.43
2023-01-15T08:24:13.069Z,2.45
2023-01-15T08:26:58.452Z,2.45
2023-01-15T08:29:43.908Z,2.43
2023-01-15T08:32:29.232Z,2.43
2023-01-15T08:35:14.976Z,2.44
2023-01-15T08:38:05.987Z,2.43
2023-01-15T08:41:03.670Z,2.42
2023-01-15T08:43:49.119Z,2.41
2023-01-15T08:46:34.280Z,2.41
2023-01-15T08:49:21.207Z,2.42
2023-01-15T08:52:07.107Z,2.42
2023-01-15T08:54:52.433Z,2.42
2023-01-15T08:57:38.702Z,2.41
2023-01-15T09:00:24.673Z,2.42
2023-01-15T09:03:10.517Z,2.48
2023-01-15T09:06:02.128Z,2.51
2023-01-15T09:08:47.750Z,2.50
2023-01-15T09:11:33.348Z,2.50
2023-01-15T09:14:57.479Z,2.51
2023-01-15T09:17:24.301Z,2.52
2023-01-15T09:20:13.265Z,2.53
2023-01-15T09:22:58.742Z,2.56
2023-01-15T09:26:06.289Z,2.57
2023-01-15T09:28:51.779Z,2.58
2023-01-15T09:31:37.130Z,2.58
2023-01-15T09:34:23.077Z,2.59
2023-01-15T09:37:08.597Z,2.61
2023-01-15T09:39:53.973Z,2.64
2023-01-15T09:42:58.288Z,2.69
2023-01-15T09:45:57.178Z,2.74
2023-01-15T09:49:04.448Z,2.78
2023-01-15T09:51:56.617Z,2.86
2023-01-15T09:54:54.721Z,2.90
2023-01-15T09:57:42.317Z,2.94
2023-01-15T10:00:33.827Z,2.98
2023-01-15T10:03:19.220Z,3.00
2023-01-15T10:06:21.894Z,3.01
2023-01-15T10:09:15.154Z,3.02
2023-01-15T10:12:31.322Z,3.08
2023-01-15T10:15:24.681Z,3.15
2023-01-15T10:18:22.879Z,3.22
2023-01-15T10:21:35.948Z,3.26
2023-01-15T10:24:26.536Z,3.31
2023-01-15T10:27:20.293Z,3.35
2023-01-15T10:30:14.005Z,3.35
2023-01-15T10:33:05.149Z,3.36
2023-01-15T10:36:09.743Z,3.40
2023-01-15T10:39:15.036Z,3.42
2023-01-15T10:42:37.853Z,3.43
2023-01-15T10:45:27.672Z,3.42
2023-01-15T10:48:27.159Z,3.41
2023-01-15T10:51:18.520Z,3.43
2023-01-15T10:54:21.398Z,3.46
2023-01-15T10:57:30.839Z,3.56
2023-01-15T11:00:17.234Z,3.62
2023-01-15T11:03:08.802Z,3.65
2023-01-15T11:05:54.298Z,3.68
2023-01-15T11:09:07.821Z,3.69
2023-01-15T11:11:59.607Z,3.74
2023-01-15T11:15:05.132Z,3.82
2023-01-15T11:18:09.369Z,3.85
2023-01-15T11:20:55.084Z,3.90
2023-01-15T11:23:40.560Z,3.87
2023-01-15T11:26:29.808Z,3.88
2023-01-15T11:29:44.131Z,3.92
2023-01-15T11:32:35.631Z,3.93
2023-01-15T11:35:20.863Z,3.94
2023-01-15T11:38:13.101Z,3.90
2023-01-15T11:41:04.950Z,3.92
2023-01-15T11:44:18.573Z,3.93
2023-01-15T11:47:32.555Z,3.94
2023-01-15T11:50:37.802Z,3.97
2023-01-15T11:53:27.827Z,4.00
2023-01-15T11:56:20.344Z,4.04
2023-01-15T11:59:17.620Z,4.04
2023-01-15T12:02:25.901Z,4.11
2023-01-15T12:05:34.291Z,4.12
2023-01-15T12:08:37.446Z,4.14
2023-01-15T12:11:34.819Z,4.13
2023-01-15T12:14:32.525Z,4.09
2023-01-15T12:17:46.105Z,4.01
2023-01-15T12:20:40.732Z,3.98
2023-01-15T12:23:43.810Z,3.98
2023-01-15T12:26:34.203Z,4.00
2023-01-15T12:29:27.352Z,3.96
2023-01-15T12:32:18.640Z,4.07
2023-01-15T12:35:16.018Z,4.15
2023-01-15T12:38:26.443Z,4.18
2023-01-15T12:41:26.409Z,4.20
2023-01-15T12:44:30.305Z,4.25
2023-01-15T12:47:22.030Z,4.18
2023-01-15T12:50:45.297Z,4.16
2023-01-15T12:53:37.460Z,4.17
2023-01-15T12:56:25.844Z,4.18
2023-01-15T12:59:24.488Z,4.21
2023-01-15T13:02:36.256Z,4.24
2023-01-15T13:05:23.293Z,4.23
2023-01-15T13:08:47.304Z,4.25
2023-01-15T13:11:33.285Z,4.30
2023-01-15T13:14:21.776Z,4.33
2023-01-15T13:17:24.282Z,4.32
2023-01-15T13:20:24.919Z,4.33
2023-01-15T13:23:31.865Z,4.33
2023-01-15T13:26:55.027Z,4.33
2023-01-15T13:29:52.096Z,4.32
2023-01-15T13:32:48.719Z,4.33
2023-01-15T13:35:41.138Z,4.33
2023-01-15T13:38:31.234Z,4.32
2023-01-15T13:41:40.938Z,4.33
2023-01-15T13:44:36.199Z,4.39
2023-01-15T13:47:29.017Z,4.40
2023-01-15T13:50:37.287Z,4.38
2023-01-15T13:53:38.610Z,4.40
2023-01-15T13:56:30.378Z,4.40
2023-01-15T13:59:41.238Z,4.47
2023-01-15T14:02:27.965Z,4.49
2023-01-15T14:05:33.888Z,4.53
2023-01-15T14:08:26.803Z,4.60
2023-01-15T14:11:30.830Z,4.61
2023-01-15T14:14:25.751Z,4.62
2023-01-15T14:17:32.213Z,4.59
2023-01-15T14:20:26.916Z,4.58
2023-01-15T14:23:21.731Z,4.57
2023-01-15T14:26:10.235Z,4.55
2023-01-15T14:29:22.971Z,4.60
2023-01-15T14:32:24.316Z,4.60
2023-01-15T14:35:18.714Z,4.59
2023-01-15T14:38:07.165Z,4.65
2023-01-15T14:41:02.290Z,4.68
2023-01-15T14:43:49.698Z,4.63
2023-01-15T14:46:38.811Z,4.63
2023-01-15T14:49:32.400Z,4.59
2023-01-15T14:52:23.739Z,4.57
2023-01-15T14:55:12.746Z,4.50
2023-01-15T14:58:05.744Z,4.46
2023-01-15T15:00:55.797Z,4.39
2023-01-15T15:04:07.249Z,4.34
2023-01-15T15:07:27.302Z,4.30
2023-01-15T15:10:33.940Z,4.22
2023-01-15T15:13:32.837Z,4.14
2023-01-15T15:16:27.410Z,4.09
2023-01-15T15:19:27.026Z,4.06
2023-01-15T15:22:16.954Z,4.04
2023-01-15T15:25:11.036Z,4.02
2023-01-15T15:28:09.619Z,3.98
2023-01-15T15:30:57.389Z,3.93
2023-01-15T15:33:42.955Z,3.92
2023-01-15T15:36:32.151Z,3.90
2023-01-15T15:39:29.062Z,3.90
2023-01-15T15:42:47.673Z,3.89
2023-01-15T15:45:52.205Z,3.86
2023-01-15T15:48:45.166Z,3.82
2023-01-15T15:51:35.400Z,3.78
2023-01-15T15:54:23.961Z,3.74
2023-01-15T15:57:17.837Z,3.72
2023-01-15T16:00:04.526Z,3.67
2023-01-15T16:02:51.662Z,3.65
2023-01-15T16:05:36.885Z,3.65
2023-01-15T16:08:22.427Z,3.64
2023-01-15T16:11:12.003Z,3.61
2023-01-15T16:14:00.343Z,3.62
2023-01-15T16:16:47.010Z,3.56
2023-01-15T16:19:32.660Z,3.45
2023-01-15T16:22:18.923Z,3.42
2023-01-15T16:25:05.476Z,3.41
2023-01-15T16:27:51.819Z,3.43
2023-01-15T16:30:37.579Z,3.41
2023-01-15T16:33:23.738Z,3.41
2023-01-15T16:36:09.418Z,3.37
2023-01-15T16:38:55.617Z,3.32
2023-01-15T16:41:42.597Z,3.29
2023-01-15T16:44:50.309Z,3.29
2023-01-15T16:47:36.812Z,3.29
2023-01-15T16:50:22.435Z,3.29
2023-01-15T16:53:36.549Z,3.29
2023-01-15T16:56:45.041Z,3.30
2023-01-15T16:59:30.512Z,3.29
2023-01-15T17:02:22.067Z,3.27
2023-01-15T17:05:17.558Z,3.16
2023-01-15T17:08:03.342Z,3.09
2023-01-15T17:10:54.199Z,3.05
2023-01-15T17:13:40.914Z,3.01
2023-01-15T17:16:26.803Z,2.99
2023-01-15T17:19:12.397Z,2.98
2023-01-15T17:21:57.796Z,2.97
2023-01-15T17:24:48.177Z,2.99
2023-01-15T17:27:33.583Z,2.99
2023-01-15T17:30:19.435Z,3.00
2023-01-15T17:33:06.948Z,3.01
2023-01-15T17:35:53.975Z,3.02
2023-01-15T17:38:39.368Z,3.03
2023-01-15T17:41:24.971Z,3.04
2023-01-15T17:44:14.852Z,3.05
2023-01-15T17:47:00.495Z,3.07
2023-01-15T17:49:45.850Z,3.08
2023-01-15T17:52:31.211Z,3.08
2023-01-15T17:55:39.195Z,3.07
2023-01-15T17:58:43.306Z,3.04
2023-01-15T18:01:52.027Z,3.02
2023-01-15T18:05:08.787Z,2.99
2023-01-15T18:07:56.694Z,2.99
2023-01-15T18:10:42.421Z,2.98
2023-01-15T18:13:27.857Z,2.94
2023-01-15T18:16:13.824Z,2.91
2023-01-15T18:18:59.196Z,2.85
2023-01-15T18:21:44.486Z,2.85
2023-01-15T18:24:29.992Z,2.87
2023-01-15T18:27:15.314Z,2.88
2023-01-15T18:30:00.742Z,2.90
2023-01-15T18:32:46.140Z,2.88
2023-01-15T18:35:31.918Z,2.82
2023-01-15T18:38:17.640Z,2.73
2023-01-15T18:41:34.620Z,2.65
2023-01-15T18:44:40.279Z,2.55
2023-01-15T18:47:26.999Z,2.50
2023-01-15T18:50:12.344Z,2.50
2023-01-15T18:52:58.095Z,2.52
2023-01-15T18:55:43.961Z,2.57
2023-01-15T18:58:29.534Z,2.59
2023-01-15T19:01:14.923Z,2.60
2023-01-15T19:04:00.674Z,2.63
2023-01-15T19:06:47.649Z,2.66
2023-01-15T19:09:34.229Z,2.69
2023-01-15T19:12:20.171Z,2.71
2023-01-15T19:15:25.834Z,2.71
2023-01-15T19:18:29.840Z,2.68
2023-01-15T19:21:17.895Z,2.60
2023-01-15T19:24:03.382Z,2.50
2023-01-15T19:26:49.114Z,2.38
2023-01-15T19:29:34.339Z,2.32
2023-01-15T19:32:19.888Z,2.24
2023-01-15T19:35:05.791Z,2.17
2023-01-15T19:37:53.353Z,2.16
2023-01-15T19:40:42.091Z,2.21
2023-01-15T19:43:46.055Z,2.23
2023-01-15T19:46:50.391Z,2.25
2023-01-15T19:49:55.932Z,2.31
2023-01-15T19:52:41.419Z,2.37
2023-01-15T19:55:29.703Z,2.41
2023-01-15T19:58:15.864Z,2.46
2023-01-15T20:01:01.904Z,2.51
2023-01-15T20:03:47.617Z,2.52
2023-01-15T20:06:32.950Z,2.53
2023-01-15T20:09:18.130Z,2.56
2023-01-15T20:12:22.068Z,2.58
2023-01-15T20:15:08.473Z,2.63
2023-01-15T20:17:54.176Z,2.67
2023-01-15T20:20:39.990Z,2.68
2023-01-15T20:23:25.589Z,2.67
2023-01-15T20:26:13.409Z,2.66
2023-01-15T20:28:59.064Z,2.67
2023-01-15T20:31:44.526Z,2.69
2023-01-15T20:34:36.315Z,2.69
2023-01-15T20:37:23.303Z,2.68
2023-01-15T20:40:09.620Z,2.68
2023-01-15T20:43:13.641Z,2.69
2023-01-15T20:46:15.864Z,2.68
2023-01-15T20:49:19.859Z,2.66
2023-01-15T20:52:05.537Z,2.66
2023-01-15T20:54:51.092Z,2.62
2023-01-15T20:57:38.506Z,2.56
2023-01-15T21:00:24.521Z,2.52
2023-01-15T21:03:11.923Z,2.48
2023-01-15T21:05:58.758Z,2.44
2023-01-15T21:08:46.043Z,2.45
2023-01-15T21:11:31.739Z,2.44
2023-01-15T21:14:17.183Z,2.45
2023-01-15T21:17:02.517Z,2.45
2023-01-15T21:19:47.937Z,2.46
2023-01-15T21:22:33.219Z,2.46
2023-01-15T21:25:18.800Z,2.46
2023-01-15T21:28:05.017Z,2.42
2023-01-15T21:30:50.387Z,2.39
2023-01-15T21:33:36.600Z,2.38
2023-01-15T21:36:22.799Z,2.37
2023-01-15T21:39:11.949Z,2.35
2023-01-15T21:42:15.865Z,2.34
2023-01-15T21:45:01.585Z,2.30
2023-01-15T21:47:47.231Z,2.22
2023-01-15T21:50:32.457Z,2.06
2023-01-15T21:53:17.809Z,1.93
2023-01-15T21:56:03.387Z,1.81
2023-01-15T21:58:49.169Z,1.67
2023-01-15T22:01:34.475Z,1.58
2023-01-15T22:04:19.855Z,1.51
2023-01-15T22:07:05.218Z,1.44
2023-01-15T22:09:51.018Z,1.38
2023-01-15T22:12:42.062Z,1.32
2023-01-15T22:15:28.244Z,1.27
2023-01-15T22:18:13.704Z,1.21
2023-01-15T22:21:05.898Z,1.16
2023-01-15T22:23:51.496Z,1.11
2023-01-15T22:26:37.991Z,1.10
2023-01-15T22:29:26.360Z,1.06
2023-01-15T22:32:14.363Z,1.05
2023-01-15T22:35:00.115Z,0.99
2023-01-15T22:37:45.504Z,0.97
2023-01-15T22:40:30.805Z,0.94
2023-01-15T22:43:16.295Z,0.91
2023-01-15T22:46:12.912Z,0.89
2023-01-15T22:48:58.418Z,0.85
2023-01-15T22:51:43.988Z,0.80
2023-01-15T22:54:29.624Z,0.73
2023-01-15T22:57:16.065Z,0.69
2023-01-15T23:00:02.386Z,0.62
2023-01-15T23:03:04.909Z,0.56
2023-01-15T23:05:50.505Z,0.54
2023-01-15T23:08:36.276Z,0.51
2023-01-15T23:11:21.898Z,0.44
2023-01-15T23:14:08.762Z,0.50
2023-01-15T23:16:54.391Z,0.63
2023-01-15T23:19:39.666Z,0.81
2023-01-15T23:22:25.106Z,0.94
2023-01-15T23:25:10.468Z,1.02
2023-01-15T23:27:55.873Z,1.08
2023-01-15T23:30:41.215Z,1.14
2023-01-15T23:33:26.899Z,1.15
2023-01-15T23:36:12.557Z,1.18
2023-01-15T23:38:57.850Z,1.21
2023-01-15T23:42:01.716Z,1.22
2023-01-15T23:45:05.762Z,1.23
2023-01-15T23:47:51.255Z,1.21
2023-01-15T23:50:36.753Z,1.24
2023-01-15T23:53:22.136Z,1.23
2023-01-15T23:56:08.047Z,1.23
2023-01-15T23:58:53.535Z,1.24
